Time;durP1;ratioP1;P1;durP2;ratioP2;P2;SDS_P1;SDS_P2;PMS_P1;PMS_P2;Temp;Humidity;BMP_temperature;BMP_pressure;BME280_temperature;BME280_humidity;BME280_pressure;Samples;Min_cycle;Max_cycle;Signal;HPM_P1;HPM_P2
2023/02/09 00:00:53;;;;;;;18.80;10.15;;;;;;;-146.25;81.37;52441.19;2079941;28;40915;-69
2023/02/09 00:01:55;;;;;;;19.15;10.02;;;;;;;-146.25;81.60;52445.25;2088266;28;36132;-68
2023/02/09 00:02:56;;;;;;;18.85;9.65;;;;;;;-146.25;81.11;52398.59;2088440;28;38754;-68
2023/02/09 00:04:01;;;;;;;18.98;9.98;;;;;;;-146.25;81.19;52477.69;2087488;28;43524;-69
2023/02/09 00:05:03;;;;;;;19.17;10.10;;;;;;;-146.25;81.63;52461.47;2087979;28;35178;-68
2023/02/09 00:06:08;;;;;;;18.52;9.93;;;;;;;-146.25;81.85;52451.31;2088533;28;40156;-69
2023/02/09 00:07:09;;;;;;;17.70;9.63;;;;;;;-146.25;81.65;52416.84;2079754;28;39007;-69
2023/02/09 00:08:11;;;;;;;16.70;9.82;;;;;;;-146.25;82.00;52455.38;2080177;28;36599;-69
2023/02/09 00:09:15;;;;;;;18.20;9.23;;;;;;;-146.25;81.96;52481.75;2087520;28;40583;-69
2023/02/09 00:10:17;;;;;;;17.90;10.10;;;;;;;-146.25;81.97;52441.19;2088272;28;20033;-69
2023/02/09 00:14:06;;;;;;;19.67;9.75;;;;;;;-146.25;82.87;52443.22;2088622;28;36106;-69
2023/02/09 00:15:08;;;;;;;19.02;9.57;;;;;;;-146.25;82.71;52445.25;2088426;28;39132;-68
2023/02/09 00:16:12;;;;;;;16.70;9.05;;;;;;;-146.25;82.71;52449.31;2088699;28;20081;-69
2023/02/09 00:17:14;;;;;;;15.27;8.88;;;;;;;-146.25;82.53;52453.34;2088434;28;30515;-68
2023/02/09 00:18:18;;;;;;;18.50;9.00;;;;;;;-146.25;82.72;52465.53;2088333;28;41116;-68
2023/02/09 00:19:21;;;;;;;19.13;9.88;;;;;;;-146.25;83.13;52465.53;2088573;28;33997;-68
2023/02/09 00:20:22;;;;;;;22.13;11.07;;;;;;;-146.25;83.11;52449.31;2087487;28;38469;-69
2023/02/09 00:21:24;;;;;;;18.40;9.73;;;;;;;-146.25;82.97;52455.38;2088804;28;20044;-68
2023/02/09 00:22:26;;;;;;;17.35;9.38;;;;;;;-146.25;82.56;52447.28;2088446;28;40080;-69
2023/02/09 00:23:30;;;;;;;16.73;9.57;;;;;;;-146.25;82.51;52461.47;2088320;28;40682;-68
2023/02/09 00:24:31;;;;;;;18.85;9.55;;;;;;;-146.25;82.09;52447.28;2088230;28;35018;-69
2023/02/09 00:25:33;;;;;;;17.48;10.13;;;;;;;-146.25;82.30;52485.81;2088496;28;40841;-68
2023/02/09 00:26:36;;;;;;;20.15;9.65;;;;;;;-146.25;82.22;52424.97;2089791;28;20041;-68
2023/02/09 00:27:38;;;;;;;20.25;9.88;;;;;;;-146.25;82.26;52465.53;2088497;28;20034;-68
2023/02/09 00:28:39;;;;;;;17.15;9.27;;;;;;;-146.25;82.36;52441.19;2088211;28;34310;-68
2023/02/09 00:29:41;;;;;;;17.15;9.18;;;;;;;-146.25;82.21;52431.06;2079352;28;36581;-68
2023/02/09 00:30:43;;;;;;;18.88;9.35;;;;;;;-146.25;82.22;52431.06;2080745;28;20126;-68
2023/02/09 00:31:45;;;;;;;17.33;9.50;;;;;;;-146.25;82.38;52457.41;2088915;28;20040;-68
2023/02/09 00:32:47;;;;;;;19.02;9.57;;;;;;;-146.25;82.16;52451.31;2088641;28;33177;-68
2023/02/09 00:33:51;;;;;;;18.42;9.40;;;;;;;-146.25;82.29;52473.63;2079643;28;37357;-68
2023/02/09 00:34:53;;;;;;;17.27;9.40;;;;;;;-146.25;82.30;52420.91;2080279;28;31935;-68
2023/02/09 00:35:55;;;;;;;17.40;9.30;;;;;;;-146.25;82.71;52481.75;2088584;28;31878;-68
2023/02/09 00:36:57;;;;;;;17.63;9.63;;;;;;;-146.25;82.61;52461.47;2089042;28;20034;-68
2023/02/09 00:37:58;;;;;;;17.15;9.30;;;;;;;-146.25;82.84;52487.81;2088796;28;33334;-68
2023/02/09 00:39:00;;;;;;;15.30;9.20;;;;;;;-146.25;82.84;52457.41;2088233;28;38055;-68
2023/02/09 00:40:03;;;;;;;14.98;9.10;;;;;;;-146.25;82.99;52414.84;2089159;28;20979;-68
2023/02/09 00:41:05;;;;;;;16.88;10.02;;;;;;;-146.25;83.00;52469.56;2079620;28;34959;-68
2023/02/09 00:42:07;;;;;;;16.98;9.45;;;;;;;-146.25;83.15;52465.53;2079862;28;25729;-68
2023/02/09 00:43:10;;;;;;;18.58;8.70;;;;;;;-146.25;82.91;52431.06;2072261;28;20034;-68
2023/02/09 00:44:12;;;;;;;16.92;8.10;;;;;;;-146.25;83.23;52443.22;2064346;28;35345;-68
2023/02/09 00:45:14;;;;;;;14.32;8.15;;;;;;;-146.25;82.84;52424.97;2072412;28;20038;-68
2023/02/09 00:46:15;;;;;;;15.88;8.30;;;;;;;-146.25;82.85;52420.91;2080084;28;33898;-68
2023/02/09 00:47:17;;;;;;;16.70;8.90;;;;;;;-146.25;82.58;52475.66;2088296;28;24812;-68
2023/02/09 00:48:19;;;;;;;18.35;8.48;;;;;;;-146.25;82.87;52445.25;2079965;28;25070;-68
2023/02/09 00:49:20;;;;;;;15.70;8.48;;;;;;;-146.25;83.13;52427.00;2079763;28;34941;-68
2023/02/09 00:50:23;;;;;;;16.48;9.23;;;;;;;-146.25;83.11;52429.03;2079407;28;36964;-68
2023/02/09 00:51:25;;;;;;;15.02;8.43;;;;;;;-146.25;83.03;52429.03;2079665;28;41138;-68
2023/02/09 00:52:28;;;;;;;16.00;9.15;;;;;;;-146.25;82.79;52463.50;2088098;28;40329;-68
2023/02/09 00:53:30;;;;;;;16.45;8.88;;;;;;;-146.25;83.09;52441.19;2089578;28;20034;-68
2023/02/09 00:54:32;;;;;;;14.57;8.32;;;;;;;-146.25;83.05;52437.13;2088481;28;35209;-68
2023/02/09 00:55:34;;;;;;;17.35;7.82;;;;;;;-146.25;83.01;52489.84;2079366;28;41728;-68
2023/02/09 00:56:35;;;;;;;15.27;8.40;;;;;;;-146.25;82.90;52465.53;2079696;28;30660;-68
2023/02/09 00:57:37;;;;;;;14.50;8.18;;;;;;;-146.25;83.39;52497.97;2087964;28;38715;-68
2023/02/09 00:58:39;;;;;;;16.58;8.52;;;;;;;-146.25;83.47;52455.38;2088950;28;20052;-68
2023/02/09 00:59:41;;;;;;;15.05;8.80;;;;;;;-146.25;83.87;52412.81;2088494;28;30478;-67
2023/02/09 01:00:43;;;;;;;16.15;9.05;;;;;;;-146.25;83.99;52453.34;2088436;28;30222;-68
2023/02/09 01:01:46;;;;;;;16.95;8.88;;;;;;;-146.25;84.07;52459.44;2080012;28;20053;-68
2023/02/09 01:02:48;;;;;;;15.65;8.75;;;;;;;-146.25;84.94;52429.03;2079789;28;20060;-68
2023/02/09 01:03:50;;;;;;;16.50;9.18;;;;;;;-146.25;84.66;52467.56;2089173;28;20053;-67
2023/02/09 01:04:51;;;;;;;14.02;8.13;;;;;;;-146.25;84.29;52418.88;2087359;28;34071;-68
2023/02/09 01:05:53;;;;;;;17.88;8.98;;;;;;;-146.25;84.23;52449.31;2079487;28;34756;-68
2023/02/09 01:06:55;;;;;;;15.73;9.18;;;;;;;-146.25;84.01;52479.72;2071970;28;20753;-67
2023/02/09 01:07:57;;;;;;;20.10;8.52;;;;;;;-146.25;84.43;52463.50;2079700;28;30058;-68
2023/02/09 01:09:00;;;;;;;15.02;8.40;;;;;;;-146.25;83.78;52485.81;2088154;28;20045;-68
2023/02/09 01:10:03;;;;;;;16.58;9.68;;;;;;;-146.25;84.61;52461.47;2087845;28;20040;-68
2023/02/09 01:11:14;;;;;;;15.07;8.30;;;;;;;-146.25;84.26;52479.72;2088635;28;30286;-68
2023/02/09 01:12:17;;;;;;;15.07;7.82;;;;;;;-146.25;83.93;52461.47;2088277;28;27179;-68
2023/02/09 01:13:19;;;;;;;13.90;8.60;;;;;;;-146.25;83.51;52500.00;2087731;28;37592;-67
2023/02/09 01:14:23;;;;;;;15.07;8.70;;;;;;;-146.25;83.79;52422.94;2089115;28;20041;-67
2023/02/09 01:15:28;;;;;;;14.73;7.95;;;;;;;-146.25;83.72;52467.56;2079816;28;33019;-67
2023/02/09 01:16:30;;;;;;;17.50;8.88;;;;;;;-146.25;84.28;52463.50;2071833;28;28791;-68
2023/02/09 01:17:32;;;;;;;15.73;8.43;;;;;;;-146.25;84.73;52424.97;2079643;28;36032;-68
2023/02/09 01:18:34;;;;;;;16.60;8.95;;;;;;;-146.25;84.09;52475.66;2088112;28;24402;-68
2023/02/09 01:19:36;;;;;;;17.23;9.43;;;;;;;-146.25;83.69;52469.56;2079270;28;33839;-68
2023/02/09 01:20:40;;;;;;;15.40;8.68;;;;;;;-146.25;83.91;52457.41;2079530;28;27152;-68
2023/02/09 01:21:42;;;;;;;16.10;8.77;;;;;;;-146.25;83.52;52445.25;2079392;28;27786;-68
2023/02/09 01:22:44;;;;;;;17.10;8.40;;;;;;;-146.25;83.50;52457.41;2079477;28;33179;-67
2023/02/09 01:23:46;;;;;;;16.30;8.40;;;;;;;-146.25;84.27;52445.25;2088264;28;33639;-67
2023/02/09 01:24:50;;;;;;;14.80;8.27;;;;;;;-146.25;83.68;52465.53;2071686;28;20050;-68
2023/02/09 01:26:07;;;;;;;16.40;8.65;;;;;;;-146.25;83.69;52453.34;2071763;28;28012;-67
2023/02/09 01:27:11;;;;;;;15.10;7.90;;;;;;;-146.25;83.94;52445.25;2088062;28;30494;-67
2023/02/09 01:28:13;;;;;;;17.48;8.57;;;;;;;-146.25;83.86;52441.19;2087772;28;30783;-67
2023/02/09 01:29:18;;;;;;;16.00;8.73;;;;;;;-146.25;83.71;52437.13;2079418;28;37280;-68
2023/02/09 01:30:19;;;;;;;17.80;8.23;;;;;;;-146.25;83.54;52469.56;2080152;28;30169;-68
2023/02/09 01:31:31;;;;;;;13.25;7.63;;;;;;;-146.25;82.93;52453.34;2079413;28;29137;-67
2023/02/09 01:32:35;;;;;;;16.52;7.40;;;;;;;-146.25;83.20;52453.34;2080998;28;27998;-68
2023/02/09 01:33:37;;;;;;;13.50;7.68;;;;;;;-146.25;83.33;52461.47;2088900;28;20826;-67
2023/02/09 01:34:39;;;;;;;15.10;7.60;;;;;;;-146.25;83.57;52420.91;2087501;28;41515;-67
2023/02/09 01:35:41;;;;;;;14.00;7.47;;;;;;;-146.25;83.21;52441.19;2087901;28;30827;-67
2023/02/09 01:36:44;;;;;;;16.10;7.60;;;;;;;-146.25;84.03;52489.84;2079418;28;27706;-67
2023/02/09 01:37:50;;;;;;;14.63;7.90;;;;;;;-146.25;84.04;52445.25;2080675;28;20942;-67
2023/02/09 01:38:58;;;;;;;14.98;7.85;;;;;;;-146.25;84.34;52451.31;2088517;28;20038;-67
2023/02/09 01:40:01;;;;;;;15.73;8.30;;;;;;;-146.25;84.47;52465.53;2087400;28;30421;-67
2023/02/09 01:41:03;;;;;;;18.20;8.63;;;;;;;-146.25;84.45;52465.53;2079898;28;33854;-68
2023/02/09 01:42:05;;;;;;;13.95;8.07;;;;;;;-146.25;84.09;52439.16;2081924;28;20946;-68
2023/02/09 01:43:12;;;;;;;13.32;7.43;;;;;;;-146.25;84.17;52437.13;2089812;28;36448;-68
2023/02/09 01:44:13;;;;;;;16.20;7.95;;;;;;;-146.25;84.08;52453.34;2079781;28;20042;-68
2023/02/09 01:45:45;;;;;;;16.73;8.48;;;;;;;-146.25;84.68;52455.38;2079882;28;38835;-67
2023/02/09 01:46:47;;;;;;;14.23;7.50;;;;;;;-146.25;84.65;52435.09;2079775;28;20050;-67
2023/02/09 01:47:55;;;;;;;15.60;8.35;;;;;;;-146.25;84.63;52461.47;2079252;28;24723;-67
2023/02/09 01:49:08;;;;;;;16.67;7.50;;;;;;;-146.25;84.71;52420.91;2088167;28;20092;-67
2023/02/09 01:50:11;;;;;;;16.05;8.63;;;;;;;-146.25;84.87;52443.22;2079630;28;25973;-67
2023/02/09 01:51:14;;;;;;;13.65;7.72;;;;;;;-146.25;84.66;52398.59;2070862;28;35598;-68
2023/02/09 01:52:22;;;;;;;13.85;7.70;;;;;;;-146.25;84.92;52439.16;2079591;28;20053;-67
2023/02/09 01:53:28;;;;;;;15.73;8.13;;;;;;;-146.25;84.71;52457.41;2079119;28;32985;-67
2023/02/09 01:54:44;;;;;;;14.43;8.18;;;;;;;-146.25;85.63;52453.34;2079584;28;26782;-67
2023/02/09 01:55:54;;;;;;;13.65;7.05;;;;;;;-146.25;84.94;52433.06;2082252;28;31611;-67
2023/02/09 01:57:03;;;;;;;14.10;7.85;;;;;;;-146.25;84.61;52451.31;2087842;28;20889;-67
2023/02/09 01:58:17;;;;;;;12.13;7.40;;;;;;;-146.25;84.21;52445.25;2078898;28;20045;-67
2023/02/09 01:59:19;;;;;;;11.65;7.07;;;;;;;-146.25;84.19;52443.22;2067124;28;36521;-67
2023/02/09 02:00:21;;;;;;;12.77;7.35;;;;;;;-146.25;84.23;52473.63;2079989;28;39020;-67
2023/02/09 02:01:25;;;;;;;15.05;7.40;;;;;;;-146.25;84.41;52457.41;2088008;28;20100;-67
2023/02/09 02:02:27;;;;;;;14.30;7.72;;;;;;;-146.25;84.41;52443.22;2079849;28;31142;-67
2023/02/09 02:03:31;;;;;;;12.10;7.40;;;;;;;-146.25;84.73;52457.41;2070957;28;30733;-68
2023/02/09 02:04:34;;;;;;;13.68;7.75;;;;;;;-146.25;85.23;52465.53;2079962;28;30903;-67
2023/02/09 02:05:41;;;;;;;17.35;7.55;;;;;;;-146.25;85.51;52414.84;2079907;28;20034;-67
2023/02/09 02:06:44;;;;;;;13.93;7.50;;;;;;;-146.25;85.56;52463.50;2080601;28;27141;-67
2023/02/09 02:08:13;;;;;;;15.15;7.75;;;;;;;-146.25;85.02;52435.09;2079402;28;28606;-68
2023/02/09 02:09:16;;;;;;;14.27;7.40;;;;;;;-146.25;85.03;52459.44;2067168;28;20050;-66
2023/02/09 02:10:20;;;;;;;13.93;7.25;;;;;;;-146.25;85.70;52433.06;2071726;28;20794;-67
2023/02/09 02:11:26;;;;;;;13.88;7.78;;;;;;;-146.25;86.29;52445.25;2070933;28;22727;-67
2023/02/09 02:12:28;;;;;;;11.98;7.07;;;;;;;-146.25;86.36;52453.34;2071102;28;28758;-67
2023/02/09 02:13:30;;;;;;;13.15;6.88;;;;;;;-146.25;85.94;52445.25;2072458;28;20042;-67
2023/02/09 02:14:38;;;;;;;14.23;7.82;;;;;;;-146.25;85.50;52449.31;2080118;28;25132;-67
2023/02/09 02:16:16;;;;;;;12.98;7.22;;;;;;;-146.25;85.17;52477.69;2080079;28;30403;-67
2023/02/09 02:18:10;;;;;;;14.18;6.93;;;;;;;-146.25;85.43;52453.34;2071742;28;20084;-67
2023/02/09 02:19:22;;;;;;;13.00;6.35;;;;;;;-146.25;85.20;52465.53;2070824;28;32572;-67
2023/02/09 02:20:48;;;;;;;11.63;6.78;;;;;;;-146.25;85.14;52433.06;2071929;28;38437;-67
2023/02/09 02:22:22;;;;;;;12.20;6.55;;;;;;;-146.25;84.35;52445.25;2062922;28;29427;-67
2023/02/09 02:24:03;;;;;;;13.52;6.53;;;;;;;-146.25;84.39;52420.91;2070707;28;36237;-67
2023/02/09 02:25:29;;;;;;;14.75;6.65;;;;;;;-146.25;84.44;52459.44;2079600;28;31485;-67
2023/02/09 02:27:03;;;;;;;14.57;6.80;;;;;;;-146.25;84.45;52431.06;2071372;28;20050;-67
2023/02/09 02:28:30;;;;;;;13.63;6.95;;;;;;;-146.25;84.21;52461.47;2075993;28;20437;-67
2023/02/09 02:30:04;;;;;;;11.55;5.95;;;;;;;-146.25;84.08;52439.16;2072062;28;20046;-67
2023/02/09 02:31:40;;;;;;;12.93;7.22;;;;;;;-146.25;84.59;52437.13;2070009;28;43029;-67
2023/02/09 02:32:52;;;;;;;11.38;6.13;;;;;;;-146.25;84.07;52445.25;2078897;28;38565;-67
2023/02/09 02:34:13;;;;;;;14.70;6.68;;;;;;;-146.25;84.29;52465.53;2079421;28;40408;-67
2023/02/09 02:35:53;;;;;;;14.25;7.13;;;;;;;-146.25;84.47;52457.41;2070601;28;41054;-67
2023/02/09 02:37:23;;;;;;;13.45;6.38;;;;;;;-146.25;84.32;52457.41;2071065;28;36157;-67
2023/02/09 02:39:14;;;;;;;15.07;7.00;;;;;;;-146.25;85.11;52447.28;2082056;28;36069;-67
2023/02/09 02:40:53;;;;;;;12.88;6.60;;;;;;;-146.25;84.22;52433.06;2063475;28;42234;-67
2023/02/09 02:43:58;;;;;;;11.48;6.00;;;;;;;-146.25;83.41;52429.03;2078789;28;39317;-67
2023/02/09 02:45:30;;;;;;;12.60;6.40;;;;;;;-146.25;82.92;52453.34;2085508;28;20053;-68
2023/02/09 02:46:49;;;;;;;12.10;6.13;;;;;;;-146.25;82.68;52461.47;2086681;28;37419;-66
2023/02/09 02:48:09;;;;;;;12.02;5.57;;;;;;;-146.25;82.49;52461.47;2078948;28;40337;-67
2023/02/09 02:49:35;;;;;;;10.93;6.07;;;;;;;-146.25;81.90;52431.06;2084526;28;20346;-67
2023/02/09 02:50:46;;;;;;;14.75;6.80;;;;;;;-146.25;81.87;52443.22;2087693;28;39496;-67
2023/02/09 02:51:53;;;;;;;13.65;5.85;;;;;;;-146.25;81.46;52477.69;2087403;28;39829;-67
2023/02/09 02:52:58;;;;;;;12.68;5.70;;;;;;;-146.25;81.62;52471.59;2087742;28;40164;-67
2023/02/09 02:54:06;;;;;;;12.05;5.93;;;;;;;-146.25;81.72;52453.34;2086892;28;39307;-67
2023/02/09 02:55:14;;;;;;;12.55;6.47;;;;;;;-146.25;81.73;52485.81;2079246;28;20783;-67
2023/02/09 02:56:23;;;;;;;10.77;6.28;;;;;;;-146.25;81.88;52467.56;2080550;28;41810;-67
2023/02/09 02:57:30;;;;;;;10.02;5.45;;;;;;;-146.25;81.18;52487.81;2078873;28;35930;-67
2023/02/09 02:58:35;;;;;;;9.70;5.95;;;;;;;-146.25;80.94;52465.53;2081037;28;35670;-67
2023/02/09 02:59:54;;;;;;;14.07;6.80;;;;;;;-146.25;80.95;52455.38;2078910;28;41099;-67
2023/02/09 03:00:59;;;;;;;11.68;6.28;;;;;;;-146.25;80.69;52437.13;2075113;28;39566;-67
2023/02/09 03:02:32;;;;;;;11.35;6.13;;;;;;;-146.25;80.87;52453.34;2078709;28;38983;-67
2023/02/09 03:03:35;;;;;;;11.93;6.47;;;;;;;-146.25;81.18;52457.41;2078937;28;36839;-67
2023/02/09 03:04:39;;;;;;;10.52;5.28;;;;;;;-146.25;81.23;52441.19;2079617;28;41355;-67
2023/02/09 03:05:43;;;;;;;11.93;6.13;;;;;;;-146.25;81.73;52408.75;2078541;28;42657;-67
2023/02/09 03:06:47;;;;;;;11.85;5.65;;;;;;;-146.25;81.86;52443.22;2070559;28;37010;-67
2023/02/09 03:07:50;;;;;;;11.18;6.05;;;;;;;-146.25;81.21;52420.91;2062854;28;41974;-67
2023/02/09 03:08:56;;;;;;;9.90;6.10;;;;;;;-146.25;81.43;52435.09;2069791;28;39127;-67
2023/02/09 03:09:58;;;;;;;11.43;5.88;;;;;;;-146.25;81.52;52445.25;2071029;28;37888;-67
2023/02/09 03:11:02;;;;;;;10.20;6.22;;;;;;;-146.25;81.33;52451.31;2079930;28;40739;-68
2023/02/09 03:12:45;;;;;;;13.45;6.50;;;;;;;-146.25;80.72;52433.06;2087112;28;35652;-68
2023/02/09 03:14:20;;;;;;;10.85;5.20;;;;;;;-146.25;80.79;52427.00;2067206;28;39786;-67
2023/02/09 03:15:40;;;;;;;8.77;5.15;;;;;;;-146.25;80.18;52412.81;2084722;28;20871;-67
2023/02/09 03:17:10;;;;;;;11.23;5.60;;;;;;;-146.25;80.24;52439.16;2088512;28;20088;-67
2023/02/09 03:18:30;;;;;;;10.48;5.20;;;;;;;-146.25;79.80;52473.63;2087685;28;40060;-67
2023/02/09 03:20:20;;;;;;;11.38;5.90;;;;;;;-146.25;79.96;52473.63;2078675;28;42677;-67
2023/02/09 03:22:04;;;;;;;13.55;5.43;;;;;;;-146.25;79.65;52422.94;2052880;28;29994;-67
2023/02/09 03:23:14;;;;;;;10.18;5.45;;;;;;;-146.25;79.89;52481.75;2046586;28;20894;-67
2023/02/09 03:24:36;;;;;;;7.63;4.45;;;;;;;-146.25;79.49;52408.75;2042724;28;41406;-66
2023/02/09 03:25:46;;;;;;;10.85;5.50;;;;;;;-146.25;79.84;52451.31;2050108;28;23501;-67
2023/02/09 03:26:58;;;;;;;9.25;4.90;;;;;;;-146.25;79.81;52447.28;2058371;28;41434;-67
2023/02/09 03:28:08;;;;;;;11.02;5.45;;;;;;;-146.25;80.04;52429.03;2082011;28;38897;-67
2023/02/09 03:29:12;;;;;;;9.15;5.38;;;;;;;-146.25;80.38;52447.28;2080304;28;41636;-67
2023/02/09 03:30:16;;;;;;;9.07;4.93;;;;;;;-146.25;79.51;52463.50;2079274;28;37090;-67
2023/02/09 03:31:20;;;;;;;11.45;5.18;;;;;;;-146.25;80.04;52457.41;2081082;28;22678;-67
2023/02/09 03:32:23;;;;;;;10.10;5.85;;;;;;;-146.25;79.96;52424.97;2071864;28;34399;-67
2023/02/09 03:33:28;;;;;;;12.13;6.20;;;;;;;-146.25;80.01;52469.56;2073122;28;31000;-67
2023/02/09 03:34:30;;;;;;;11.18;6.20;;;;;;;-146.25;79.79;52453.34;2079775;28;39913;-67
2023/02/09 03:35:40;;;;;;;12.13;5.43;;;;;;;-146.25;79.78;52453.34;2080910;28;40026;-67
2023/02/09 03:36:43;;;;;;;12.07;5.60;;;;;;;-146.25;79.65;52473.63;2081064;28;20045;-67
2023/02/09 03:37:47;;;;;;;10.40;5.47;;;;;;;-146.25;79.83;52441.19;2072599;28;38921;-67
2023/02/09 03:38:49;;;;;;;8.95;4.97;;;;;;;-146.25;79.31;52439.16;2080306;28;38875;-67
2023/02/09 03:39:51;;;;;;;10.70;5.03;;;;;;;-146.25;79.04;52473.63;2088695;28;40756;-67
2023/02/09 03:40:53;;;;;;;11.15;5.57;;;;;;;-146.25;78.85;52435.09;2079809;28;39708;-66
2023/02/09 03:41:55;;;;;;;8.77;4.88;;;;;;;-146.25;78.56;52453.34;2081212;28;20042;-67
2023/02/09 03:42:57;;;;;;;10.43;5.55;;;;;;;-146.25;78.32;52447.28;2088115;28;39238;-67
2023/02/09 03:45:18;;;;;;;13.13;5.75;;;;;;;-146.25;78.09;52453.34;2088947;28;38134;-67
2023/02/09 03:46:20;;;;;;;12.35;5.85;;;;;;;-146.25;78.12;52441.19;2088991;28;40880;-67
2023/02/09 03:47:22;;;;;;;14.52;5.45;;;;;;;-146.25;78.10;52453.34;2088961;28;36642;-66
2023/02/09 03:48:23;;;;;;;8.90;5.25;;;;;;;-146.25;77.91;52451.31;2079910;28;38426;-67
2023/02/09 03:49:32;;;;;;;10.10;5.32;;;;;;;-146.25;77.78;52471.59;2080562;28;41246;-67
2023/02/09 03:50:35;;;;;;;10.55;5.32;;;;;;;-146.25;77.35;52439.16;2089529;28;27080;-67
2023/02/09 03:51:37;;;;;;;11.23;5.63;;;;;;;-146.25;76.86;52445.25;2087894;28;41722;-67
2023/02/09 03:52:38;;;;;;;9.30;4.95;;;;;;;-146.25;76.73;52479.72;2079718;28;41464;-66
2023/02/09 03:53:40;;;;;;;10.38;4.97;;;;;;;-146.25;76.50;52457.41;2080205;28;37745;-67
2023/02/09 03:54:42;;;;;;;8.85;5.20;;;;;;;-146.25;76.68;52427.00;2088669;28;40501;-67
2023/02/09 03:55:46;;;;;;;9.43;5.40;;;;;;;-146.25;76.96;52449.31;2088569;28;37963;-67
2023/02/09 03:56:48;;;;;;;10.05;5.03;;;;;;;-146.25;76.97;52408.75;2088577;28;41043;-67
2023/02/09 03:57:50;;;;;;;10.18;5.55;;;;;;;-146.25;76.81;52416.84;2088842;28;38949;-67
2023/02/09 03:58:52;;;;;;;10.30;5.25;;;;;;;-146.25;76.57;52477.69;2088935;28;35078;-67
2023/02/09 03:59:53;;;;;;;9.50;5.72;;;;;;;-146.25;76.44;52439.16;2088450;28;39485;-67
2023/02/09 04:01:06;;;;;;;9.30;5.32;;;;;;;-146.25;77.38;52449.31;2079760;28;39129;-67
2023/02/09 04:02:09;;;;;;;10.95;5.50;;;;;;;-146.25;77.12;52431.06;2082064;28;31027;-67
2023/02/09 04:03:11;;;;;;;9.05;5.60;;;;;;;-146.25;76.68;52443.22;2080659;28;20889;-66
2023/02/09 04:04:12;;;;;;;11.73;5.78;;;;;;;-146.25;76.85;52396.59;2071929;28;40914;-67
2023/02/09 04:05:15;;;;;;;10.55;5.55;;;;;;;-146.25;76.79;52447.28;2071760;28;37322;-66
2023/02/09 04:06:16;;;;;;;12.05;5.32;;;;;;;-146.25;77.02;52412.81;2080253;28;37424;-66
2023/02/09 04:07:18;;;;;;;10.50;5.15;;;;;;;-146.25;77.02;52453.34;2088747;28;38626;-67
2023/02/09 04:08:20;;;;;;;10.52;5.68;;;;;;;-146.25;77.07;52459.44;2088830;28;39448;-67
2023/02/09 04:09:25;;;;;;;11.82;6.03;;;;;;;-146.25;77.49;52422.94;2088939;28;37798;-67
2023/02/09 04:10:27;;;;;;;10.00;5.60;;;;;;;-146.25;76.94;52439.16;2088638;28;37318;-67
2023/02/09 04:11:31;;;;;;;11.00;5.82;;;;;;;-146.25;76.94;52447.28;2088210;28;36521;-67
2023/02/09 04:12:33;;;;;;;12.23;5.68;;;;;;;-146.25;76.92;52443.22;2087484;28;40743;-67
2023/02/09 04:13:35;;;;;;;10.15;5.30;;;;;;;-146.25;76.55;52433.06;2088055;28;40586;-67
2023/02/09 04:14:36;;;;;;;12.30;5.75;;;;;;;-146.25;76.76;52424.97;2088655;28;41254;-67
2023/02/09 04:15:43;;;;;;;9.80;5.63;;;;;;;-146.25;76.73;52414.84;2088815;28;36358;-67
2023/02/09 04:16:45;;;;;;;10.20;5.97;;;;;;;-146.25;76.79;52429.03;2088640;28;40017;-68
2023/02/09 04:17:49;;;;;;;10.57;5.25;;;;;;;-146.25;76.58;52433.06;2088517;28;41906;-67
2023/02/09 04:18:52;;;;;;;11.60;5.53;;;;;;;-146.25;76.83;52398.59;2089057;28;20037;-67
2023/02/09 04:19:53;;;;;;;14.13;5.70;;;;;;;-146.25;76.80;52416.84;2088495;28;41141;-67
2023/02/09 04:20:55;;;;;;;8.45;5.53;;;;;;;-146.25;76.32;52463.50;2087808;28;39362;-67
2023/02/09 04:21:57;;;;;;;13.02;5.72;;;;;;;-146.25;76.10;52483.78;2088565;28;40410;-67
2023/02/09 04:23:01;;;;;;;11.80;5.45;;;;;;;-146.25;75.77;52453.34;2089909;28;20819;-68
2023/02/09 04:24:04;;;;;;;10.95;5.82;;;;;;;-146.25;75.39;52433.06;2090573;28;20040;-67
2023/02/09 04:25:06;;;;;;;11.13;5.38;;;;;;;-146.25;75.17;52437.13;2089274;28;20141;-67
2023/02/09 04:26:08;;;;;;;11.27;5.50;;;;;;;-146.25;75.11;52451.31;2081514;28;40216;-67
2023/02/09 04:27:09;;;;;;;10.48;5.90;;;;;;;-146.25;75.04;52477.69;2079015;28;36524;-67
2023/02/09 04:28:11;;;;;;;13.43;5.97;;;;;;;-146.25;75.24;52418.88;2079857;28;40180;-67
2023/02/09 04:29:13;;;;;;;9.27;5.50;;;;;;;-146.25;74.82;52422.94;2080287;28;41202;-67
2023/02/09 04:30:15;;;;;;;11.85;5.80;;;;;;;-146.25;74.62;52453.34;2081240;28;20047;-67
2023/02/09 04:31:17;;;;;;;9.20;5.97;;;;;;;-146.25;74.58;52443.22;2080413;28;37305;-66
2023/02/09 04:32:19;;;;;;;11.63;5.65;;;;;;;-146.25;74.59;52469.56;2080045;28;36643;-67
2023/02/09 04:33:23;;;;;;;12.57;5.68;;;;;;;-146.25;73.93;52437.13;2080281;28;36541;-67
2023/02/09 04:34:24;;;;;;;9.18;5.55;;;;;;;-146.25;74.20;52437.13;2079550;28;41647;-67
2023/02/09 04:35:28;;;;;;;13.60;6.10;;;;;;;-146.25;74.35;52451.31;2079700;28;37151;-67
2023/02/09 04:36:30;;;;;;;10.27;5.72;;;;;;;-146.25;74.15;52422.94;2079515;28;43742;-67
2023/02/09 04:37:33;;;;;;;10.40;6.07;;;;;;;-146.25;74.01;52427.00;2087905;28;38862;-67
2023/02/09 04:38:35;;;;;;;10.73;6.03;;;;;;;-146.25;74.39;52457.41;2079863;28;39258;-67
2023/02/09 04:39:39;;;;;;;10.52;5.30;;;;;;;-146.25;74.00;52471.59;2079166;28;37406;-67
2023/02/09 04:40:41;;;;;;;11.02;5.80;;;;;;;-146.25;73.90;52431.06;2079540;28;38951;-67
2023/02/09 04:41:43;;;;;;;10.45;5.65;;;;;;;-146.25;74.12;52427.00;2071559;28;34420;-67
2023/02/09 04:42:45;;;;;;;9.93;5.57;;;;;;;-146.25;74.30;52433.06;2071372;28;38757;-67
2023/02/09 04:43:47;;;;;;;11.63;6.32;;;;;;;-146.25;74.62;52453.34;2080274;28;20042;-67
2023/02/09 04:44:49;;;;;;;10.57;5.53;;;;;;;-146.25;74.66;52459.44;2071341;28;40360;-67
2023/02/09 04:45:51;;;;;;;10.05;6.05;;;;;;;-146.25;74.96;52422.94;2071676;28;37601;-67
2023/02/09 04:46:53;;;;;;;10.73;5.95;;;;;;;-146.25;74.55;52429.03;2079796;28;40372;-67
2023/02/09 04:47:55;;;;;;;8.50;5.20;;;;;;;-146.25;74.48;52422.94;2080223;28;40561;-67
2023/02/09 04:48:56;;;;;;;10.02;6.07;;;;;;;-146.25;73.84;52445.25;2080898;28;22571;-67
2023/02/09 04:50:00;;;;;;;11.43;6.28;;;;;;;-146.25;74.16;52439.16;2080120;28;39413;-67
2023/02/09 04:51:02;;;;;;;12.27;6.35;;;;;;;-146.25;74.35;52451.31;2071137;28;42256;-67
2023/02/09 04:52:04;;;;;;;11.85;6.70;;;;;;;-146.25;73.52;52396.59;2079831;28;20041;-67
2023/02/09 04:53:06;;;;;;;10.20;5.82;;;;;;;-146.25;73.57;52453.34;2087441;28;43001;-67
2023/02/09 04:54:08;;;;;;;11.13;5.95;;;;;;;-146.25;73.96;52445.25;2079880;28;37750;-67
2023/02/09 04:55:09;;;;;;;10.13;6.07;;;;;;;-146.25;73.66;52416.84;2078971;28;38067;-67
2023/02/09 04:56:15;;;;;;;11.93;6.55;;;;;;;-146.25;73.96;52449.31;2079764;28;38466;-67
2023/02/09 05:00:06;;;;;;;9.40;5.68;;;;;;;-146.25;73.46;52437.13;2080277;28;25221;-67
2023/02/09 05:01:10;;;;;;;12.13;6.10;;;;;;;-146.25;73.43;52439.16;2079961;28;39282;-67
2023/02/09 05:02:12;;;;;;;10.23;5.80;;;;;;;-146.25;73.17;52449.31;2079521;28;37649;-67
2023/02/09 05:03:14;;;;;;;12.50;6.63;;;;;;;-146.25;73.64;52463.50;2079627;28;36981;-67
2023/02/09 05:04:15;;;;;;;10.60;5.88;;;;;;;-146.25;73.15;52461.47;2080284;28;38695;-67
2023/02/09 05:05:18;;;;;;;14.55;7.03;;;;;;;-146.25;72.88;52461.47;2080263;28;38658;-67
2023/02/09 05:06:21;;;;;;;11.30;6.03;;;;;;;-146.25;73.41;52449.31;2079765;28;38585;-67
2023/02/09 05:07:25;;;;;;;12.80;6.07;;;;;;;-146.25;72.89;52420.91;2088045;28;37575;-67
2023/02/09 05:08:27;;;;;;;15.38;6.35;;;;;;;-146.25;72.32;52386.44;2088023;28;20041;-67
2023/02/09 05:09:34;;;;;;;11.85;6.40;;;;;;;-146.25;72.37;52465.53;2088312;28;20033;-67
2023/02/09 05:10:35;;;;;;;11.05;5.57;;;;;;;-146.25;71.97;52457.41;2088574;28;34440;-67
2023/02/09 05:11:37;;;;;;;11.50;5.55;;;;;;;-146.25;72.48;52441.19;2080027;28;20795;-67
2023/02/09 05:12:39;;;;;;;13.23;6.32;;;;;;;-146.25;72.05;52437.13;2079327;28;39594;-67